sensor_id;sensor_type;location;lat;lon;timestamp;temperature;humidity
5556;DHT22;2801;50.972;7.856;2023-08-12T00:00:21;17.80;99.90
5556;DHT22;2801;50.972;7.856;2023-08-12T00:02:49;17.80;99.90
5556;DHT22;2801;50.972;7.856;2023-08-12T00:05:16;17.90;99.90
5556;DHT22;2801;50.972;7.856;2023-08-12T00:07:43;17.90;99.90
5556;DHT22;2801;50.972;7.856;2023-08-12T00:10:11;18.10;99.90
5556;DHT22;2801;50.972;7.856;2023-08-12T00:12:39;18.00;99.90
5556;DHT22;2801;50.972;7.856;2023-08-12T00:15:08;18.00;99.90
5556;DHT22;2801;50.972;7.856;2023-08-12T00:17:36;18.00;99.90
5556;DHT22;2801;50.972;7.856;2023-08-12T00:20:05;18.00;99.90
5556;DHT22;2801;50.972;7.856;2023-08-12T00:22:33;18.00;99.90
5556;DHT22;2801;50.972;7.856;2023-08-12T00:25:00;18.00;99.90
5556;DHT22;2801;50.972;7.856;2023-08-12T00:27:27;18.00;99.90
5556;DHT22;2801;50.972;7.856;2023-08-12T00:29:54;18.00;99.90
5556;DHT22;2801;50.972;7.856;2023-08-12T00:32:21;17.90;99.90
5556;DHT22;2801;50.972;7.856;2023-08-12T00:34:48;17.80;99.90
5556;DHT22;2801;50.972;7.856;2023-08-12T00:37:15;17.80;99.90
5556;DHT22;2801;50.972;7.856;2023-08-12T00:39:42;17.80;99.90
5556;DHT22;2801;50.972;7.856;2023-08-12T00:42:09;17.90;99.90
5556;DHT22;2801;50.972;7.856;2023-08-12T00:44:36;17.90;99.90
5556;DHT22;2801;50.972;7.856;2023-08-12T00:47:03;17.90;99.90
5556;DHT22;2801;50.972;7.856;2023-08-12T00:49:32;17.90;99.90
5556;DHT22;2801;50.972;7.856;2023-08-12T00:52:00;18.00;99.90
5556;DHT22;2801;50.972;7.856;2023-08-12T00:54:28;18.00;99.90
5556;DHT22;2801;50.972;7.856;2023-08-12T00:56:55;18.00;99.90
5556;DHT22;2801;50.972;7.856;2023-08-12T00:59:22;18.10;99.90
5556;DHT22;2801;50.972;7.856;2023-08-12T01:01:50;18.10;99.90
5556;DHT22;2801;50.972;7.856;2023-08-12T01:04:17;18.10;99.90
5556;DHT22;2801;50.972;7.856;2023-08-12T01:06:44;18.20;99.90
5556;DHT22;2801;50.972;7.856;2023-08-12T01:09:12;18.20;99.90
5556;DHT22;2801;50.972;7.856;2023-08-12T01:11:48;18.20;99.90
5556;DHT22;2801;50.972;7.856;2023-08-12T01:14:33;18.20;99.90
5556;DHT22;2801;50.972;7.856;2023-08-12T01:17:09;18.30;99.90
5556;DHT22;2801;50.972;7.856;2023-08-12T01:19:40;18.20;99.90
5556;DHT22;2801;50.972;7.856;2023-08-12T01:22:12;18.20;99.90
5556;DHT22;2801;50.972;7.856;2023-08-12T01:24:44;18.20;99.90
5556;DHT22;2801;50.972;7.856;2023-08-12T01:27:12;18.20;99.90
5556;DHT22;2801;50.972;7.856;2023-08-12T01:29:45;18.20;99.90
5556;DHT22;2801;50.972;7.856;2023-08-12T01:35:21;18.20;99.90
5556;DHT22;2801;50.972;7.856;2023-08-12T01:50:16;18.30;99.90
5556;DHT22;2801;50.972;7.856;2023-08-12T01:52:44;18.30;99.90
5556;DHT22;2801;50.972;7.856;2023-08-12T01:55:11;18.30;99.90
5556;DHT22;2801;50.972;7.856;2023-08-12T01:57:37;18.30;99.90
5556;DHT22;2801;50.972;7.856;2023-08-12T02:00:05;18.30;99.90
5556;DHT22;2801;50.972;7.856;2023-08-12T02:02:33;18.30;99.90
5556;DHT22;2801;50.972;7.856;2023-08-12T02:05:00;18.30;99.90
5556;DHT22;2801;50.972;7.856;2023-08-12T02:07:27;18.30;99.90
5556;DHT22;2801;50.972;7.856;2023-08-12T02:09:54;18.30;99.90
5556;DHT22;2801;50.972;7.856;2023-08-12T02:12:21;18.30;99.90
5556;DHT22;2801;50.972;7.856;2023-08-12T02:14:48;18.30;99.90
5556;DHT22;2801;50.972;7.856;2023-08-12T02:17:15;18.30;99.90
5556;DHT22;2801;50.972;7.856;2023-08-12T02:19:42;18.30;99.90
5556;DHT22;2801;50.972;7.856;2023-08-12T02:22:09;18.30;99.90
5556;DHT22;2801;50.972;7.856;2023-08-12T02:24:37;18.30;99.90
5556;DHT22;2801;50.972;7.856;2023-08-12T02:27:04;18.40;99.90
5556;DHT22;2801;50.972;7.856;2023-08-12T02:29:31;18.40;99.90
5556;DHT22;2801;50.972;7.856;2023-08-12T02:31:57;18.40;99.90
5556;DHT22;2801;50.972;7.856;2023-08-12T02:34:25;18.40;99.90
5556;DHT22;2801;50.972;7.856;2023-08-12T02:36:52;18.40;99.90
5556;DHT22;2801;50.972;7.856;2023-08-12T02:39:19;18.40;99.90
5556;DHT22;2801;50.972;7.856;2023-08-12T02:41:45;18.40;99.90
5556;DHT22;2801;50.972;7.856;2023-08-12T02:44:12;18.50;99.90
5556;DHT22;2801;50.972;7.856;2023-08-12T02:46:40;18.50;99.90
5556;DHT22;2801;50.972;7.856;2023-08-12T02:49:06;18.50;99.90
5556;DHT22;2801;50.972;7.856;2023-08-12T02:51:33;18.50;99.90
5556;DHT22;2801;50.972;7.856;2023-08-12T02:54:00;18.50;99.90
5556;DHT22;2801;50.972;7.856;2023-08-12T02:56:27;18.50;99.90
5556;DHT22;2801;50.972;7.856;2023-08-12T02:58:54;18.60;99.90
5556;DHT22;2801;50.972;7.856;2023-08-12T03:01:22;18.60;99.90
5556;DHT22;2801;50.972;7.856;2023-08-12T03:03:49;18.60;99.90
5556;DHT22;2801;50.972;7.856;2023-08-12T03:06:16;18.60;99.90
5556;DHT22;2801;50.972;7.856;2023-08-12T03:08:44;18.60;99.90
5556;DHT22;2801;50.972;7.856;2023-08-12T03:11:11;18.60;99.90
5556;DHT22;2801;50.972;7.856;2023-08-12T03:13:38;18.60;99.90
5556;DHT22;2801;50.972;7.856;2023-08-12T03:16:07;18.60;99.90
5556;DHT22;2801;50.972;7.856;2023-08-12T03:18:38;18.60;99.90
5556;DHT22;2801;50.972;7.856;2023-08-12T03:21:06;18.60;99.90
5556;DHT22;2801;50.972;7.856;2023-08-12T03:23:35;18.60;99.90
5556;DHT22;2801;50.972;7.856;2023-08-12T03:26:04;18.60;99.90
5556;DHT22;2801;50.972;7.856;2023-08-12T03:28:31;18.60;99.90
5556;DHT22;2801;50.972;7.856;2023-08-12T03:30:58;18.60;99.90
5556;DHT22;2801;50.972;7.856;2023-08-12T03:33:25;18.60;99.90
5556;DHT22;2801;50.972;7.856;2023-08-12T03:35:52;18.70;99.90
5556;DHT22;2801;50.972;7.856;2023-08-12T03:38:19;18.70;99.90
5556;DHT22;2801;50.972;7.856;2023-08-12T03:40:46;18.60;99.90
5556;DHT22;2801;50.972;7.856;2023-08-12T03:43:13;18.60;99.90
5556;DHT22;2801;50.972;7.856;2023-08-12T03:45:43;18.60;99.90
5556;DHT22;2801;50.972;7.856;2023-08-12T03:48:11;18.60;99.90
5556;DHT22;2801;50.972;7.856;2023-08-12T03:50:38;18.60;99.90
5556;DHT22;2801;50.972;7.856;2023-08-12T03:53:06;18.60;99.90
5556;DHT22;2801;50.972;7.856;2023-08-12T03:55:35;18.50;99.90
5556;DHT22;2801;50.972;7.856;2023-08-12T03:58:02;18.50;99.90
5556;DHT22;2801;50.972;7.856;2023-08-12T04:00:30;18.60;99.90
5556;DHT22;2801;50.972;7.856;2023-08-12T04:02:57;18.60;99.90
5556;DHT22;2801;50.972;7.856;2023-08-12T04:05:24;18.60;99.90
5556;DHT22;2801;50.972;7.856;2023-08-12T04:07:51;18.60;99.90
5556;DHT22;2801;50.972;7.856;2023-08-12T04:10:18;18.50;99.90
5556;DHT22;2801;50.972;7.856;2023-08-12T04:12:45;18.60;99.90
5556;DHT22;2801;50.972;7.856;2023-08-12T04:15:12;18.60;99.90
5556;DHT22;2801;50.972;7.856;2023-08-12T04:17:39;18.60;99.90
5556;DHT22;2801;50.972;7.856;2023-08-12T04:20:08;18.60;99.90
5556;DHT22;2801;50.972;7.856;2023-08-12T04:22:36;18.60;99.90
5556;DHT22;2801;50.972;7.856;2023-08-12T04:25:03;18.60;99.90
5556;DHT22;2801;50.972;7.856;2023-08-12T04:27:30;18.60;99.90
5556;DHT22;2801;50.972;7.856;2023-08-12T04:29:57;18.60;99.90
5556;DHT22;2801;50.972;7.856;2023-08-12T04:32:24;18.60;99.90
5556;DHT22;2801;50.972;7.856;2023-08-12T04:34:51;18.60;99.90
5556;DHT22;2801;50.972;7.856;2023-08-12T04:37:18;18.50;99.90
5556;DHT22;2801;50.972;7.856;2023-08-12T04:39:45;18.60;99.90
5556;DHT22;2801;50.972;7.856;2023-08-12T04:42:12;18.60;99.90
5556;DHT22;2801;50.972;7.856;2023-08-12T04:44:39;18.60;99.90
5556;DHT22;2801;50.972;7.856;2023-08-12T04:47:06;18.60;99.90
5556;DHT22;2801;50.972;7.856;2023-08-12T04:49:33;18.60;99.90
5556;DHT22;2801;50.972;7.856;2023-08-12T04:52:00;18.60;99.90
5556;DHT22;2801;50.972;7.856;2023-08-12T04:54:27;18.70;99.90
5556;DHT22;2801;50.972;7.856;2023-08-12T04:56:54;18.70;99.90
5556;DHT22;2801;50.972;7.856;2023-08-12T04:59:21;18.70;99.90
5556;DHT22;2801;50.972;7.856;2023-08-12T05:01:48;18.70;99.90
5556;DHT22;2801;50.972;7.856;2023-08-12T05:04:30;18.80;99.90
5556;DHT22;2801;50.972;7.856;2023-08-12T05:06:57;18.80;99.90
5556;DHT22;2801;50.972;7.856;2023-08-12T05:09:24;18.90;99.90
5556;DHT22;2801;50.972;7.856;2023-08-12T05:11:51;18.90;99.90
5556;DHT22;2801;50.972;7.856;2023-08-12T05:14:18;18.90;99.90
5556;DHT22;2801;50.972;7.856;2023-08-12T05:16:45;19.00;99.90
5556;DHT22;2801;50.972;7.856;2023-08-12T05:19:12;19.00;99.90
5556;DHT22;2801;50.972;7.856;2023-08-12T05:21:39;19.00;99.90
5556;DHT22;2801;50.972;7.856;2023-08-12T05:24:06;19.00;99.90
5556;DHT22;2801;50.972;7.856;2023-08-12T05:26:33;19.00;99.90
5556;DHT22;2801;50.972;7.856;2023-08-12T05:29:00;19.00;99.90
5556;DHT22;2801;50.972;7.856;2023-08-12T05:31:29;19.00;99.90
5556;DHT22;2801;50.972;7.856;2023-08-12T05:33:56;19.00;99.90
5556;DHT22;2801;50.972;7.856;2023-08-12T05:36:23;19.00;99.90
5556;DHT22;2801;50.972;7.856;2023-08-12T05:38:50;19.00;99.90
5556;DHT22;2801;50.972;7.856;2023-08-12T05:41:17;19.10;99.90
5556;DHT22;2801;50.972;7.856;2023-08-12T05:43:44;19.20;99.90
5556;DHT22;2801;50.972;7.856;2023-08-12T05:46:11;19.20;99.90
5556;DHT22;2801;50.972;7.856;2023-08-12T05:48:38;19.20;99.90
5556;DHT22;2801;50.972;7.856;2023-08-12T05:51:05;19.20;99.90
5556;DHT22;2801;50.972;7.856;2023-08-12T05:53:32;19.20;99.90
5556;DHT22;2801;50.972;7.856;2023-08-12T05:56:00;19.20;99.90
5556;DHT22;2801;50.972;7.856;2023-08-12T05:58:27;19.20;99.90
5556;DHT22;2801;50.972;7.856;2023-08-12T06:00:54;19.20;99.90
5556;DHT22;2801;50.972;7.856;2023-08-12T06:03:21;19.20;99.90
5556;DHT22;2801;50.972;7.856;2023-08-12T06:05:48;19.20;99.90
5556;DHT22;2801;50.972;7.856;2023-08-12T06:08:15;19.20;99.90
5556;DHT22;2801;50.972;7.856;2023-08-12T06:10:42;19.20;99.90
5556;DHT22;2801;50.972;7.856;2023-08-12T06:13:10;19.30;99.90
5556;DHT22;2801;50.972;7.856;2023-08-12T06:15:36;19.40;99.90
5556;DHT22;2801;50.972;7.856;2023-08-12T06:18:04;19.50;99.90
5556;DHT22;2801;50.972;7.856;2023-08-12T06:20:31;19.60;99.90
5556;DHT22;2801;50.972;7.856;2023-08-12T06:22:58;19.70;99.90
5556;DHT22;2801;50.972;7.856;2023-08-12T06:25:25;19.80;99.90
5556;DHT22;2801;50.972;7.856;2023-08-12T06:27:52;19.90;99.90
5556;DHT22;2801;50.972;7.856;2023-08-12T06:30:19;19.90;99.90
5556;DHT22;2801;50.972;7.856;2023-08-12T06:32:46;20.00;99.90
5556;DHT22;2801;50.972;7.856;2023-08-12T06:35:13;20.10;99.90
5556;DHT22;2801;50.972;7.856;2023-08-12T06:37:40;20.10;99.90
5556;DHT22;2801;50.972;7.856;2023-08-12T06:40:08;20.10;99.90
5556;DHT22;2801;50.972;7.856;2023-08-12T06:42:35;20.10;99.90
5556;DHT22;2801;50.972;7.856;2023-08-12T06:45:03;20.10;99.90
5556;DHT22;2801;50.972;7.856;2023-08-12T06:47:31;20.10;99.90
5556;DHT22;2801;50.972;7.856;2023-08-12T06:49:58;20.20;99.90
5556;DHT22;2801;50.972;7.856;2023-08-12T06:52:25;20.20;99.90
5556;DHT22;2801;50.972;7.856;2023-08-12T06:54:52;20.20;99.90
5556;DHT22;2801;50.972;7.856;2023-08-12T06:57:19;20.10;99.90
5556;DHT22;2801;50.972;7.856;2023-08-12T06:59:46;20.10;99.90
5556;DHT22;2801;50.972;7.856;2023-08-12T07:02:13;20.00;99.90
5556;DHT22;2801;50.972;7.856;2023-08-12T07:13:06;19.60;99.90
5556;DHT22;2801;50.972;7.856;2023-08-12T07:36:20;19.20;99.90
5556;DHT22;2801;50.972;7.856;2023-08-12T07:38:47;19.30;99.90
5556;DHT22;2801;50.972;7.856;2023-08-12T07:41:14;19.50;99.90
5556;DHT22;2801;50.972;7.856;2023-08-12T07:43:41;19.50;99.90
5556;DHT22;2801;50.972;7.856;2023-08-12T07:46:08;19.60;99.90
5556;DHT22;2801;50.972;7.856;2023-08-12T07:48:36;19.70;99.90
5556;DHT22;2801;50.972;7.856;2023-08-12T07:51:05;19.80;99.90
5556;DHT22;2801;50.972;7.856;2023-08-12T07:53:32;19.80;99.90
5556;DHT22;2801;50.972;7.856;2023-08-12T07:55:59;20.00;99.90
5556;DHT22;2801;50.972;7.856;2023-08-12T07:58:26;20.20;99.90
5556;DHT22;2801;50.972;7.856;2023-08-12T08:00:53;20.60;99.90
5556;DHT22;2801;50.972;7.856;2023-08-12T08:03:20;20.70;99.90
5556;DHT22;2801;50.972;7.856;2023-08-12T08:05:47;20.80;99.90
5556;DHT22;2801;50.972;7.856;2023-08-12T08:08:15;20.80;99.90
5556;DHT22;2801;50.972;7.856;2023-08-12T08:10:42;20.70;99.90
5556;DHT22;2801;50.972;7.856;2023-08-12T08:13:08;20.70;99.90
5556;DHT22;2801;50.972;7.856;2023-08-12T08:15:35;20.70;99.90
5556;DHT22;2801;50.972;7.856;2023-08-12T08:18:02;20.80;99.90
5556;DHT22;2801;50.972;7.856;2023-08-12T08:20:31;20.90;99.90
5556;DHT22;2801;50.972;7.856;2023-08-12T08:22:58;20.90;99.90
5556;DHT22;2801;50.972;7.856;2023-08-12T08:25:25;20.90;99.90
5556;DHT22;2801;50.972;7.856;2023-08-12T08:27:53;20.80;99.90
5556;DHT22;2801;50.972;7.856;2023-08-12T08:30:20;20.80;99.90
5556;DHT22;2801;50.972;7.856;2023-08-12T08:32:47;20.70;99.90
5556;DHT22;2801;50.972;7.856;2023-08-12T08:35:14;20.80;99.90
5556;DHT22;2801;50.972;7.856;2023-08-12T08:37:42;20.80;99.90
5556;DHT22;2801;50.972;7.856;2023-08-12T08:40:09;20.90;99.90
5556;DHT22;2801;50.972;7.856;2023-08-12T08:42:37;20.90;99.90
5556;DHT22;2801;50.972;7.856;2023-08-12T08:45:12;20.90;99.90
5556;DHT22;2801;50.972;7.856;2023-08-12T08:47:41;20.90;99.90
5556;DHT22;2801;50.972;7.856;2023-08-12T08:50:10;20.90;99.90
5556;DHT22;2801;50.972;7.856;2023-08-12T08:52:37;20.80;99.90
5556;DHT22;2801;50.972;7.856;2023-08-12T08:55:05;20.80;99.90
5556;DHT22;2801;50.972;7.856;2023-08-12T08:57:34;20.70;99.90
5556;DHT22;2801;50.972;7.856;2023-08-12T09:00:14;20.80;99.90
5556;DHT22;2801;50.972;7.856;2023-08-12T09:02:47;20.90;99.90
5556;DHT22;2801;50.972;7.856;2023-08-12T09:05:17;21.00;99.90
5556;DHT22;2801;50.972;7.856;2023-08-12T09:07:47;20.90;99.90
5556;DHT22;2801;50.972;7.856;2023-08-12T09:10:17;20.90;99.90
5556;DHT22;2801;50.972;7.856;2023-08-12T09:12:47;20.90;99.90
5556;DHT22;2801;50.972;7.856;2023-08-12T09:15:16;20.90;99.90
5556;DHT22;2801;50.972;7.856;2023-08-12T09:17:43;20.90;99.90
5556;DHT22;2801;50.972;7.856;2023-08-12T09:20:11;20.80;99.90
5556;DHT22;2801;50.972;7.856;2023-08-12T09:22:42;20.80;99.90
5556;DHT22;2801;50.972;7.856;2023-08-12T09:25:09;20.80;99.90
5556;DHT22;2801;50.972;7.856;2023-08-12T09:27:37;20.70;99.90
5556;DHT22;2801;50.972;7.856;2023-08-12T09:30:05;20.90;99.90
5556;DHT22;2801;50.972;7.856;2023-08-12T09:32:33;21.00;99.90
5556;DHT22;2801;50.972;7.856;2023-08-12T09:35:01;21.00;99.90
5556;DHT22;2801;50.972;7.856;2023-08-12T09:37:33;21.00;99.90
5556;DHT22;2801;50.972;7.856;2023-08-12T09:40:00;21.20;99.90
5556;DHT22;2801;50.972;7.856;2023-08-12T09:42:28;21.20;99.90
5556;DHT22;2801;50.972;7.856;2023-08-12T09:44:57;21.20;99.90
5556;DHT22;2801;50.972;7.856;2023-08-12T09:47:25;21.20;99.90
5556;DHT22;2801;50.972;7.856;2023-08-12T09:49:54;21.30;99.90
5556;DHT22;2801;50.972;7.856;2023-08-12T09:52:22;21.20;99.90
5556;DHT22;2801;50.972;7.856;2023-08-12T09:54:50;21.10;99.90
5556;DHT22;2801;50.972;7.856;2023-08-12T09:57:21;21.10;99.90
5556;DHT22;2801;50.972;7.856;2023-08-12T09:59:52;21.10;99.90
5556;DHT22;2801;50.972;7.856;2023-08-12T10:02:20;21.30;99.90
5556;DHT22;2801;50.972;7.856;2023-08-12T10:04:49;21.30;99.90
5556;DHT22;2801;50.972;7.856;2023-08-12T10:07:20;21.30;99.90
5556;DHT22;2801;50.972;7.856;2023-08-12T10:09:49;21.30;99.90
5556;DHT22;2801;50.972;7.856;2023-08-12T10:12:17;21.50;99.90
5556;DHT22;2801;50.972;7.856;2023-08-12T10:14:45;21.70;99.90
5556;DHT22;2801;50.972;7.856;2023-08-12T10:17:14;21.90;99.90
5556;DHT22;2801;50.972;7.856;2023-08-12T10:19:56;22.00;99.90
5556;DHT22;2801;50.972;7.856;2023-08-12T10:22:26;22.30;99.90
5556;DHT22;2801;50.972;7.856;2023-08-12T10:24:53;22.50;99.90
5556;DHT22;2801;50.972;7.856;2023-08-12T10:27:20;22.80;99.90
5556;DHT22;2801;50.972;7.856;2023-08-12T10:29:47;22.90;99.90
5556;DHT22;2801;50.972;7.856;2023-08-12T10:32:14;22.90;99.90
5556;DHT22;2801;50.972;7.856;2023-08-12T10:34:42;23.10;99.90
5556;DHT22;2801;50.972;7.856;2023-08-12T10:37:10;23.10;99.90
5556;DHT22;2801;50.972;7.856;2023-08-12T10:39:40;23.10;99.90
5556;DHT22;2801;50.972;7.856;2023-08-12T10:42:07;23.20;99.90
5556;DHT22;2801;50.972;7.856;2023-08-12T10:44:49;23.20;99.90
5556;DHT22;2801;50.972;7.856;2023-08-12T10:47:18;23.00;99.90
5556;DHT22;2801;50.972;7.856;2023-08-12T10:49:49;23.00;99.90
5556;DHT22;2801;50.972;7.856;2023-08-12T10:52:26;22.90;99.90
5556;DHT22;2801;50.972;7.856;2023-08-12T10:55:15;22.80;99.90
5556;DHT22;2801;50.972;7.856;2023-08-12T10:57:54;22.80;99.90
5556;DHT22;2801;50.972;7.856;2023-08-12T11:00:28;22.60;99.90
5556;DHT22;2801;50.972;7.856;2023-08-12T11:02:57;22.60;99.90
5556;DHT22;2801;50.972;7.856;2023-08-12T11:05:36;22.60;99.90
5556;DHT22;2801;50.972;7.856;2023-08-12T11:08:05;22.50;99.90
5556;DHT22;2801;50.972;7.856;2023-08-12T11:10:34;22.60;99.90
5556;DHT22;2801;50.972;7.856;2023-08-12T11:13:03;22.60;99.90
5556;DHT22;2801;50.972;7.856;2023-08-12T11:15:44;22.70;99.90
5556;DHT22;2801;50.972;7.856;2023-08-12T11:18:14;22.70;99.90
5556;DHT22;2801;50.972;7.856;2023-08-12T11:20:44;22.60;99.90
5556;DHT22;2801;50.972;7.856;2023-08-12T11:23:11;22.50;99.90
5556;DHT22;2801;50.972;7.856;2023-08-12T11:25:41;22.40;99.90
5556;DHT22;2801;50.972;7.856;2023-08-12T11:28:10;22.50;99.90
5556;DHT22;2801;50.972;7.856;2023-08-12T11:30:41;22.50;99.90
5556;DHT22;2801;50.972;7.856;2023-08-12T11:33:09;22.50;99.90
5556;DHT22;2801;50.972;7.856;2023-08-12T11:35:37;22.60;99.90
5556;DHT22;2801;50.972;7.856;2023-08-12T11:38:05;22.60;99.90
5556;DHT22;2801;50.972;7.856;2023-08-12T11:40:34;22.70;99.90
5556;DHT22;2801;50.972;7.856;2023-08-12T11:43:01;22.70;99.90
5556;DHT22;2801;50.972;7.856;2023-08-12T11:45:32;22.90;99.90
5556;DHT22;2801;50.972;7.856;2023-08-12T11:48:00;23.00;99.90
5556;DHT22;2801;50.972;7.856;2023-08-12T11:50:27;23.00;99.90
5556;DHT22;2801;50.972;7.856;2023-08-12T11:52:56;22.80;99.90
5556;DHT22;2801;50.972;7.856;2023-08-12T11:55:24;22.70;99.90
5556;DHT22;2801;50.972;7.856;2023-08-12T11:57:52;22.50;99.90
5556;DHT22;2801;50.972;7.856;2023-08-12T12:00:19;22.40;99.90
5556;DHT22;2801;50.972;7.856;2023-08-12T12:02:51;22.40;99.90
5556;DHT22;2801;50.972;7.856;2023-08-12T12:05:27;22.40;99.90
5556;DHT22;2801;50.972;7.856;2023-08-12T12:07:58;22.60;99.90
5556;DHT22;2801;50.972;7.856;2023-08-12T12:10:28;22.80;99.90
5556;DHT22;2801;50.972;7.856;2023-08-12T12:13:02;22.90;99.90
5556;DHT22;2801;50.972;7.856;2023-08-12T12:15:31;23.00;99.90
5556;DHT22;2801;50.972;7.856;2023-08-12T12:18:10;23.10;99.90
5556;DHT22;2801;50.972;7.856;2023-08-12T12:21:06;23.20;99.90
5556;DHT22;2801;50.972;7.856;2023-08-12T12:23:31;23.40;99.90
5556;DHT22;2801;50.972;7.856;2023-08-12T12:26:02;23.50;99.90
5556;DHT22;2801;50.972;7.856;2023-08-12T12:28:31;23.50;99.90
5556;DHT22;2801;50.972;7.856;2023-08-12T12:30:58;23.50;99.90
5556;DHT22;2801;50.972;7.856;2023-08-12T12:33:25;23.60;99.90
5556;DHT22;2801;50.972;7.856;2023-08-12T12:35:52;23.70;99.90
5556;DHT22;2801;50.972;7.856;2023-08-12T12:38:25;23.60;99.90
5556;DHT22;2801;50.972;7.856;2023-08-12T12:40:53;23.50;99.90
5556;DHT22;2801;50.972;7.856;2023-08-12T12:43:20;23.40;99.90
5556;DHT22;2801;50.972;7.856;2023-08-12T12:45:47;23.50;99.90
5556;DHT22;2801;50.972;7.856;2023-08-12T12:48:14;23.50;99.90
5556;DHT22;2801;50.972;7.856;2023-08-12T12:50:41;23.40;99.90
5556;DHT22;2801;50.972;7.856;2023-08-12T12:53:08;23.30;99.90
5556;DHT22;2801;50.972;7.856;2023-08-12T12:55:35;23.30;99.90
5556;DHT22;2801;50.972;7.856;2023-08-12T12:58:02;23.20;99.90
5556;DHT22;2801;50.972;7.856;2023-08-12T13:00:29;23.20;99.90
5556;DHT22;2801;50.972;7.856;2023-08-12T13:02:57;23.10;99.90
5556;DHT22;2801;50.972;7.856;2023-08-12T13:05:24;23.10;99.90
5556;DHT22;2801;50.972;7.856;2023-08-12T13:07:51;23.10;99.90
5556;DHT22;2801;50.972;7.856;2023-08-12T13:10:18;23.10;99.90
5556;DHT22;2801;50.972;7.856;2023-08-12T13:12:46;23.10;99.90
5556;DHT22;2801;50.972;7.856;2023-08-12T13:15:12;23.10;99.90
5556;DHT22;2801;50.972;7.856;2023-08-12T13:17:40;23.00;99.90
5556;DHT22;2801;50.972;7.856;2023-08-12T13:20:07;23.00;99.90
5556;DHT22;2801;50.972;7.856;2023-08-12T13:22:36;22.90;99.90
5556;DHT22;2801;50.972;7.856;2023-08-12T13:25:03;22.90;99.90
5556;DHT22;2801;50.972;7.856;2023-08-12T13:27:31;23.10;99.90
5556;DHT22;2801;50.972;7.856;2023-08-12T13:29:58;23.40;99.90
5556;DHT22;2801;50.972;7.856;2023-08-12T13:32:25;23.60;99.90
5556;DHT22;2801;50.972;7.856;2023-08-12T13:34:51;23.50;99.90
5556;DHT22;2801;50.972;7.856;2023-08-12T13:37:18;23.60;99.90
5556;DHT22;2801;50.972;7.856;2023-08-12T13:39:45;23.60;99.90
5556;DHT22;2801;50.972;7.856;2023-08-12T13:42:12;23.70;99.90
5556;DHT22;2801;50.972;7.856;2023-08-12T13:44:40;23.70;99.90
5556;DHT22;2801;50.972;7.856;2023-08-12T13:47:07;23.60;99.90
5556;DHT22;2801;50.972;7.856;2023-08-12T13:49:34;23.60;99.90
5556;DHT22;2801;50.972;7.856;2023-08-12T13:52:01;23.60;99.90
5556;DHT22;2801;50.972;7.856;2023-08-12T13:54:28;23.70;99.90
5556;DHT22;2801;50.972;7.856;2023-08-12T13:56:54;23.80;99.90
5556;DHT22;2801;50.972;7.856;2023-08-12T13:59:21;24.00;99.90
5556;DHT22;2801;50.972;7.856;2023-08-12T14:01:48;24.30;99.90
5556;DHT22;2801;50.972;7.856;2023-08-12T14:04:15;24.40;99.90
5556;DHT22;2801;50.972;7.856;2023-08-12T14:06:42;24.50;99.90
5556;DHT22;2801;50.972;7.856;2023-08-12T14:09:10;24.60;99.90
5556;DHT22;2801;50.972;7.856;2023-08-12T14:11:40;24.60;99.90
5556;DHT22;2801;50.972;7.856;2023-08-12T14:14:07;24.60;99.90
5556;DHT22;2801;50.972;7.856;2023-08-12T14:16:35;24.70;99.90
5556;DHT22;2801;50.972;7.856;2023-08-12T14:19:02;24.80;99.90
5556;DHT22;2801;50.972;7.856;2023-08-12T14:21:29;25.10;99.90
5556;DHT22;2801;50.972;7.856;2023-08-12T14:23:56;25.40;99.90
5556;DHT22;2801;50.972;7.856;2023-08-12T14:26:23;25.60;99.90
5556;DHT22;2801;50.972;7.856;2023-08-12T14:28:50;25.60;99.90
5556;DHT22;2801;50.972;7.856;2023-08-12T14:31:17;25.40;99.90
5556;DHT22;2801;50.972;7.856;2023-08-12T14:33:44;25.30;99.90
5556;DHT22;2801;50.972;7.856;2023-08-12T14:36:11;25.20;99.90
5556;DHT22;2801;50.972;7.856;2023-08-12T14:38:38;25.20;99.90
5556;DHT22;2801;50.972;7.856;2023-08-12T14:41:05;25.10;99.90
5556;DHT22;2801;50.972;7.856;2023-08-12T14:43:32;25.00;99.90
5556;DHT22;2801;50.972;7.856;2023-08-12T14:45:59;24.80;99.90
5556;DHT22;2801;50.972;7.856;2023-08-12T14:48:26;24.80;99.90
5556;DHT22;2801;50.972;7.856;2023-08-12T14:50:53;24.80;99.90
5556;DHT22;2801;50.972;7.856;2023-08-12T14:53:21;24.70;99.90
5556;DHT22;2801;50.972;7.856;2023-08-12T14:55:48;24.70;99.90
5556;DHT22;2801;50.972;7.856;2023-08-12T14:58:15;24.90;99.90
5556;DHT22;2801;50.972;7.856;2023-08-12T15:00:42;25.00;99.90
5556;DHT22;2801;50.972;7.856;2023-08-12T15:03:09;24.90;99.90
5556;DHT22;2801;50.972;7.856;2023-08-12T15:05:38;24.70;99.90
5556;DHT22;2801;50.972;7.856;2023-08-12T15:08:05;24.40;99.90
5556;DHT22;2801;50.972;7.856;2023-08-12T15:10:32;24.20;99.90
5556;DHT22;2801;50.972;7.856;2023-08-12T15:13:00;23.70;99.90
5556;DHT22;2801;50.972;7.856;2023-08-12T15:15:27;23.20;99.90
5556;DHT22;2801;50.972;7.856;2023-08-12T15:17:54;22.80;99.90
5556;DHT22;2801;50.972;7.856;2023-08-12T15:20:21;22.30;99.90
5556;DHT22;2801;50.972;7.856;2023-08-12T15:22:48;22.00;99.90
5556;DHT22;2801;50.972;7.856;2023-08-12T15:25:15;21.70;99.90
5556;DHT22;2801;50.972;7.856;2023-08-12T15:27:42;21.70;99.90
5556;DHT22;2801;50.972;7.856;2023-08-12T15:30:09;21.60;99.90
5556;DHT22;2801;50.972;7.856;2023-08-12T15:32:37;21.60;99.90
5556;DHT22;2801;50.972;7.856;2023-08-12T15:35:09;21.50;99.90
5556;DHT22;2801;50.972;7.856;2023-08-12T15:37:36;21.40;99.90
5556;DHT22;2801;50.972;7.856;2023-08-12T15:40:03;21.20;99.90
5556;DHT22;2801;50.972;7.856;2023-08-12T15:42:31;21.10;99.90
5556;DHT22;2801;50.972;7.856;2023-08-12T15:44:59;21.10;99.90
5556;DHT22;2801;50.972;7.856;2023-08-12T15:47:28;21.00;99.90
5556;DHT22;2801;50.972;7.856;2023-08-12T15:49:55;20.90;99.90
5556;DHT22;2801;50.972;7.856;2023-08-12T15:52:22;20.90;99.90
5556;DHT22;2801;50.972;7.856;2023-08-12T15:54:49;21.00;99.90
5556;DHT22;2801;50.972;7.856;2023-08-12T15:57:16;21.10;99.90
5556;DHT22;2801;50.972;7.856;2023-08-12T15:59:43;21.20;99.90
5556;DHT22;2801;50.972;7.856;2023-08-12T16:02:11;21.30;99.90
5556;DHT22;2801;50.972;7.856;2023-08-12T16:04:38;21.40;99.90
5556;DHT22;2801;50.972;7.856;2023-08-12T16:07:05;21.60;99.90
5556;DHT22;2801;50.972;7.856;2023-08-12T16:09:32;21.70;99.90
5556;DHT22;2801;50.972;7.856;2023-08-12T16:11:59;21.70;99.90
5556;DHT22;2801;50.972;7.856;2023-08-12T16:14:26;21.70;99.90
5556;DHT22;2801;50.972;7.856;2023-08-12T16:16:53;21.70;99.90
5556;DHT22;2801;50.972;7.856;2023-08-12T16:19:20;21.80;99.90
5556;DHT22;2801;50.972;7.856;2023-08-12T16:21:47;21.90;99.90
5556;DHT22;2801;50.972;7.856;2023-08-12T16:24:14;22.00;99.90
5556;DHT22;2801;50.972;7.856;2023-08-12T16:26:41;22.00;99.90
5556;DHT22;2801;50.972;7.856;2023-08-12T16:29:08;22.00;99.90
5556;DHT22;2801;50.972;7.856;2023-08-12T16:31:35;22.00;99.90
5556;DHT22;2801;50.972;7.856;2023-08-12T16:34:06;22.00;99.90
5556;DHT22;2801;50.972;7.856;2023-08-12T16:36:33;21.90;99.90
5556;DHT22;2801;50.972;7.856;2023-08-12T16:38:59;21.80;99.90
5556;DHT22;2801;50.972;7.856;2023-08-12T16:41:26;21.80;99.90
5556;DHT22;2801;50.972;7.856;2023-08-12T16:43:53;21.80;99.90
5556;DHT22;2801;50.972;7.856;2023-08-12T16:46:20;21.70;99.90
5556;DHT22;2801;50.972;7.856;2023-08-12T16:48:49;21.70;99.90
5556;DHT22;2801;50.972;7.856;2023-08-12T16:51:16;21.80;99.90